sensor_id;sensor_type;location;lat;lon;timestamp;P1;durP1;ratioP1;P2;durP2;ratioP2
3991;SDS011;2010;48.194;16.394;2023-11-22T00:00:55;14.93;;;7.30;;
3991;SDS011;2010;48.194;16.394;2023-11-22T00:03:24;12.50;;;8.30;;
3991;SDS011;2010;48.194;16.394;2023-11-22T00:05:55;12.60;;;8.77;;
3991;SDS011;2010;48.194;16.394;2023-11-22T00:08:25;9.43;;;8.50;;
3991;SDS011;2010;48.194;16.394;2023-11-22T00:11:02;12.60;;;9.80;;
3991;SDS011;2010;48.194;16.394;2023-11-22T00:13:34;12.80;;;10.10;;
3991;SDS011;2010;48.194;16.394;2023-11-22T00:16:07;12.43;;;9.33;;
3991;SDS011;2010;48.194;16.394;2023-11-22T00:18:41;12.90;;;9.83;;
3991;SDS011;2010;48.194;16.394;2023-11-22T00:21:24;14.33;;;12.00;;
3991;SDS011;2010;48.194;16.394;2023-11-22T00:23:55;14.43;;;12.17;;
3991;SDS011;2010;48.194;16.394;2023-11-22T00:26:30;15.60;;;12.60;;
3991;SDS011;2010;48.194;16.394;2023-11-22T00:29:02;14.33;;;12.50;;
3991;SDS011;2010;48.194;16.394;2023-11-22T00:31:32;14.50;;;12.23;;
3991;SDS011;2010;48.194;16.394;2023-11-22T00:34:01;14.50;;;12.97;;
3991;SDS011;2010;48.194;16.394;2023-11-22T00:36:39;15.07;;;12.40;;
3991;SDS011;2010;48.194;16.394;2023-11-22T00:39:10;17.37;;;13.90;;
3991;SDS011;2010;48.194;16.394;2023-11-22T00:41:47;19.67;;;13.40;;
3991;SDS011;2010;48.194;16.394;2023-11-22T00:44:18;16.80;;;13.33;;
3991;SDS011;2010;48.194;16.394;2023-11-22T00:46:50;17.20;;;12.33;;
3991;SDS011;2010;48.194;16.394;2023-11-22T00:49:31;15.83;;;11.90;;
3991;SDS011;2010;48.194;16.394;2023-11-22T00:52:07;19.67;;;12.43;;
3991;SDS011;2010;48.194;16.394;2023-11-22T00:54:41;20.00;;;14.70;;
3991;SDS011;2010;48.194;16.394;2023-11-22T00:57:12;15.40;;;12.43;;
3991;SDS011;2010;48.194;16.394;2023-11-22T00:59:42;15.93;;;12.00;;
3991;SDS011;2010;48.194;16.394;2023-11-22T01:02:11;14.20;;;12.00;;
3991;SDS011;2010;48.194;16.394;2023-11-22T01:04:48;14.20;;;11.90;;
3991;SDS011;2010;48.194;16.394;2023-11-22T01:07:17;12.67;;;10.97;;
3991;SDS011;2010;48.194;16.394;2023-11-22T01:09:48;13.07;;;10.63;;
3991;SDS011;2010;48.194;16.394;2023-11-22T01:12:21;12.80;;;10.70;;
3991;SDS011;2010;48.194;16.394;2023-11-22T01:15:05;11.50;;;9.60;;
3991;SDS011;2010;48.194;16.394;2023-11-22T01:17:37;11.47;;;9.37;;
3991;SDS011;2010;48.194;16.394;2023-11-22T01:20:10;10.73;;;9.10;;
3991;SDS011;2010;48.194;16.394;2023-11-22T01:22:52;10.90;;;8.37;;
3991;SDS011;2010;48.194;16.394;2023-11-22T01:25:21;9.40;;;7.90;;
3991;SDS011;2010;48.194;16.394;2023-11-22T01:27:50;9.10;;;7.90;;
3991;SDS011;2010;48.194;16.394;2023-11-22T01:30:22;9.73;;;8.33;;
3991;SDS011;2010;48.194;16.394;2023-11-22T01:32:51;8.37;;;7.50;;
3991;SDS011;2010;48.194;16.394;2023-11-22T01:35:25;7.33;;;6.60;;
3991;SDS011;2010;48.194;16.394;2023-11-22T01:37:56;8.70;;;7.37;;
3991;SDS011;2010;48.194;16.394;2023-11-22T01:40:25;9.10;;;7.23;;
3991;SDS011;2010;48.194;16.394;2023-11-22T01:42:56;7.93;;;6.67;;
3991;SDS011;2010;48.194;16.394;2023-11-22T01:45:36;8.37;;;6.87;;
3991;SDS011;2010;48.194;16.394;2023-11-22T01:48:10;7.70;;;6.90;;
3991;SDS011;2010;48.194;16.394;2023-11-22T01:50:49;9.13;;;7.63;;
3991;SDS011;2010;48.194;16.394;2023-11-22T01:53:22;9.40;;;7.20;;
3991;SDS011;2010;48.194;16.394;2023-11-22T01:55:52;7.30;;;6.60;;
3991;SDS011;2010;48.194;16.394;2023-11-22T01:58:25;7.30;;;6.60;;
3991;SDS011;2010;48.194;16.394;2023-11-22T02:00:58;9.03;;;7.13;;
3991;SDS011;2010;48.194;16.394;2023-11-22T02:03:31;8.50;;;6.70;;
3991;SDS011;2010;48.194;16.394;2023-11-22T02:06:02;7.77;;;7.00;;
3991;SDS011;2010;48.194;16.394;2023-11-22T02:08:35;8.30;;;7.50;;
3991;SDS011;2010;48.194;16.394;2023-11-22T02:11:05;7.13;;;6.40;;
3991;SDS011;2010;48.194;16.394;2023-11-22T02:13:36;7.33;;;6.40;;
3991;SDS011;2010;48.194;16.394;2023-11-22T02:16:05;7.27;;;6.57;;
3991;SDS011;2010;48.194;16.394;2023-11-22T02:18:38;7.10;;;6.40;;
3991;SDS011;2010;48.194;16.394;2023-11-22T02:21:16;8.30;;;6.17;;
3991;SDS011;2010;48.194;16.394;2023-11-22T02:24:01;6.30;;;5.70;;
3991;SDS011;2010;48.194;16.394;2023-11-22T02:26:30;6.60;;;5.97;;
3991;SDS011;2010;48.194;16.394;2023-11-22T02:29:03;6.90;;;6.20;;
3991;SDS011;2010;48.194;16.394;2023-11-22T02:31:32;7.33;;;6.60;;
3991;SDS011;2010;48.194;16.394;2023-11-22T02:34:10;6.30;;;5.53;;
3991;SDS011;2010;48.194;16.394;2023-11-22T02:36:47;7.30;;;6.60;;
3991;SDS011;2010;48.194;16.394;2023-11-22T02:39:43;6.17;;;5.50;;
3991;SDS011;2010;48.194;16.394;2023-11-22T02:42:22;7.47;;;6.70;;
3991;SDS011;2010;48.194;16.394;2023-11-22T02:45:03;7.27;;;6.60;;
3991;SDS011;2010;48.194;16.394;2023-11-22T02:47:32;6.30;;;5.80;;
3991;SDS011;2010;48.194;16.394;2023-11-22T02:50:03;7.40;;;6.70;;
3991;SDS011;2010;48.194;16.394;2023-11-22T02:52:32;6.97;;;6.37;;
3991;SDS011;2010;48.194;16.394;2023-11-22T02:55:04;6.60;;;6.00;;
3991;SDS011;2010;48.194;16.394;2023-11-22T02:57:36;9.00;;;6.40;;
3991;SDS011;2010;48.194;16.394;2023-11-22T03:00:11;6.83;;;6.13;;
3991;SDS011;2010;48.194;16.394;2023-11-22T03:02:54;8.03;;;7.10;;
3991;SDS011;2010;48.194;16.394;2023-11-22T03:05:38;7.20;;;6.60;;
3991;SDS011;2010;48.194;16.394;2023-11-22T03:08:15;9.00;;;5.93;;
3991;SDS011;2010;48.194;16.394;2023-11-22T03:10:59;7.00;;;6.30;;
3991;SDS011;2010;48.194;16.394;2023-11-22T03:13:32;7.80;;;7.10;;
3991;SDS011;2010;48.194;16.394;2023-11-22T03:16:06;6.30;;;5.80;;
3991;SDS011;2010;48.194;16.394;2023-11-22T03:18:42;7.20;;;6.53;;
3991;SDS011;2010;48.194;16.394;2023-11-22T03:21:11;6.63;;;6.03;;
3991;SDS011;2010;48.194;16.394;2023-11-22T03:23:43;7.17;;;6.57;;
3991;SDS011;2010;48.194;16.394;2023-11-22T03:26:26;6.40;;;5.80;;
3991;SDS011;2010;48.194;16.394;2023-11-22T03:28:58;7.20;;;6.10;;
3991;SDS011;2010;48.194;16.394;2023-11-22T03:31:29;7.30;;;6.10;;
3991;SDS011;2010;48.194;16.394;2023-11-22T03:34:03;6.60;;;6.10;;
3991;SDS011;2010;48.194;16.394;2023-11-22T03:36:36;7.60;;;6.00;;
3991;SDS011;2010;48.194;16.394;2023-11-22T03:39:08;6.10;;;5.50;;
3991;SDS011;2010;48.194;16.394;2023-11-22T03:41:47;5.70;;;5.13;;
3991;SDS011;2010;48.194;16.394;2023-11-22T03:44:19;6.40;;;5.80;;
3991;SDS011;2010;48.194;16.394;2023-11-22T03:46:53;6.10;;;5.23;;
3991;SDS011;2010;48.194;16.394;2023-11-22T03:49:23;6.43;;;5.83;;
3991;SDS011;2010;48.194;16.394;2023-11-22T03:51:52;6.70;;;5.90;;
3991;SDS011;2010;48.194;16.394;2023-11-22T03:54:21;6.27;;;5.67;;
3991;SDS011;2010;48.194;16.394;2023-11-22T03:56:55;5.67;;;5.17;;
3991;SDS011;2010;48.194;16.394;2023-11-22T03:59:33;6.77;;;6.20;;
3991;SDS011;2010;48.194;16.394;2023-11-22T04:02:10;6.23;;;5.73;;
3991;SDS011;2010;48.194;16.394;2023-11-22T04:04:43;5.70;;;5.30;;
3991;SDS011;2010;48.194;16.394;2023-11-22T04:07:14;6.37;;;5.87;;
3991;SDS011;2010;48.194;16.394;2023-11-22T04:09:43;8.23;;;6.63;;
3991;SDS011;2010;48.194;16.394;2023-11-22T04:12:26;6.40;;;5.90;;
3991;SDS011;2010;48.194;16.394;2023-11-22T04:14:55;11.20;;;7.30;;
3991;SDS011;2010;48.194;16.394;2023-11-22T04:17:26;7.23;;;6.53;;
3991;SDS011;2010;48.194;16.394;2023-11-22T04:19:57;7.23;;;6.50;;
3991;SDS011;2010;48.194;16.394;2023-11-22T04:22:36;7.70;;;6.90;;
3991;SDS011;2010;48.194;16.394;2023-11-22T04:25:15;7.37;;;6.67;;
3991;SDS011;2010;48.194;16.394;2023-11-22T04:27:55;7.93;;;7.00;;
3991;SDS011;2010;48.194;16.394;2023-11-22T04:30:32;7.53;;;6.83;;
3991;SDS011;2010;48.194;16.394;2023-11-22T04:33:03;6.83;;;6.13;;
3991;SDS011;2010;48.194;16.394;2023-11-22T04:35:33;8.50;;;6.90;;
3991;SDS011;2010;48.194;16.394;2023-11-22T04:38:06;8.63;;;7.77;;
3991;SDS011;2010;48.194;16.394;2023-11-22T04:40:36;8.17;;;7.07;;
3991;SDS011;2010;48.194;16.394;2023-11-22T04:43:20;7.53;;;6.87;;
3991;SDS011;2010;48.194;16.394;2023-11-22T04:45:54;9.07;;;8.17;;
3991;SDS011;2010;48.194;16.394;2023-11-22T04:48:28;8.60;;;7.77;;
3991;SDS011;2010;48.194;16.394;2023-11-22T04:51:00;7.93;;;7.13;;
3991;SDS011;2010;48.194;16.394;2023-11-22T04:53:29;7.50;;;6.80;;
3991;SDS011;2010;48.194;16.394;2023-11-22T04:56:01;14.73;;;7.93;;
3991;SDS011;2010;48.194;16.394;2023-11-22T04:58:41;8.00;;;7.20;;
3991;SDS011;2010;48.194;16.394;2023-11-22T05:01:15;8.33;;;7.20;;
3991;SDS011;2010;48.194;16.394;2023-11-22T05:03:47;10.80;;;8.50;;
3991;SDS011;2010;48.194;16.394;2023-11-22T05:06:17;8.50;;;7.60;;
3991;SDS011;2010;48.194;16.394;2023-11-22T05:08:53;8.77;;;7.83;;
3991;SDS011;2010;48.194;16.394;2023-11-22T05:11:29;10.00;;;8.10;;
3991;SDS011;2010;48.194;16.394;2023-11-22T05:14:01;10.47;;;8.33;;
3991;SDS011;2010;48.194;16.394;2023-11-22T05:16:38;8.77;;;7.90;;
3991;SDS011;2010;48.194;16.394;2023-11-22T05:19:14;9.17;;;8.03;;
3991;SDS011;2010;48.194;16.394;2023-11-22T05:21:44;7.80;;;7.10;;
3991;SDS011;2010;48.194;16.394;2023-11-22T05:24:20;9.00;;;7.70;;
3991;SDS011;2010;48.194;16.394;2023-11-22T05:26:52;9.20;;;8.20;;
3991;SDS011;2010;48.194;16.394;2023-11-22T05:29:25;9.37;;;8.23;;
3991;SDS011;2010;48.194;16.394;2023-11-22T05:32:14;11.23;;;8.57;;
3991;SDS011;2010;48.194;16.394;2023-11-22T05:34:45;9.30;;;7.67;;
3991;SDS011;2010;48.194;16.394;2023-11-22T05:37:16;8.90;;;7.73;;
3991;SDS011;2010;48.194;16.394;2023-11-22T05:39:59;11.60;;;8.63;;
3991;SDS011;2010;48.194;16.394;2023-11-22T05:42:30;9.83;;;8.00;;
3991;SDS011;2010;48.194;16.394;2023-11-22T05:45:05;9.33;;;7.60;;
3991;SDS011;2010;48.194;16.394;2023-11-22T05:47:36;9.43;;;7.60;;
3991;SDS011;2010;48.194;16.394;2023-11-22T05:50:07;9.37;;;7.60;;
3991;SDS011;2010;48.194;16.394;2023-11-22T05:52:37;9.20;;;7.53;;
3991;SDS011;2010;48.194;16.394;2023-11-22T05:55:16;8.97;;;7.00;;
3991;SDS011;2010;48.194;16.394;2023-11-22T05:57:49;11.90;;;8.00;;
3991;SDS011;2010;48.194;16.394;2023-11-22T06:00:25;10.33;;;8.03;;
3991;SDS011;2010;48.194;16.394;2023-11-22T06:02:56;8.40;;;7.50;;
3991;SDS011;2010;48.194;16.394;2023-11-22T06:05:28;9.57;;;8.10;;
3991;SDS011;2010;48.194;16.394;2023-11-22T06:07:59;8.43;;;7.63;;
3991;SDS011;2010;48.194;16.394;2023-11-22T06:10:29;8.63;;;7.23;;
3991;SDS011;2010;48.194;16.394;2023-11-22T06:12:58;8.47;;;6.97;;
3991;SDS011;2010;48.194;16.394;2023-11-22T06:15:32;10.80;;;8.00;;
3991;SDS011;2010;48.194;16.394;2023-11-22T06:18:02;14.73;;;8.47;;
3991;SDS011;2010;48.194;16.394;2023-11-22T06:20:41;11.73;;;7.60;;
3991;SDS011;2010;48.194;16.394;2023-11-22T06:23:23;9.83;;;7.20;;
3991;SDS011;2010;48.194;16.394;2023-11-22T06:25:58;10.67;;;7.90;;
3991;SDS011;2010;48.194;16.394;2023-11-22T06:28:32;12.60;;;8.27;;
3991;SDS011;2010;48.194;16.394;2023-11-22T06:31:05;10.07;;;7.77;;
3991;SDS011;2010;48.194;16.394;2023-11-22T06:33:41;7.87;;;7.07;;
3991;SDS011;2010;48.194;16.394;2023-11-22T06:36:14;8.50;;;7.00;;
3991;SDS011;2010;48.194;16.394;2023-11-22T06:38:46;8.90;;;7.33;;
3991;SDS011;2010;48.194;16.394;2023-11-22T06:41:16;8.30;;;7.60;;
3991;SDS011;2010;48.194;16.394;2023-11-22T06:43:52;10.20;;;7.37;;
3991;SDS011;2010;48.194;16.394;2023-11-22T06:46:37;13.97;;;7.80;;
3991;SDS011;2010;48.194;16.394;2023-11-22T06:49:07;10.00;;;7.33;;
3991;SDS011;2010;48.194;16.394;2023-11-22T06:51:37;12.93;;;7.60;;
3991;SDS011;2010;48.194;16.394;2023-11-22T06:54:08;8.80;;;7.87;;
3991;SDS011;2010;48.194;16.394;2023-11-22T06:56:42;9.20;;;7.20;;
3991;SDS011;2010;48.194;16.394;2023-11-22T06:59:11;8.87;;;7.80;;
3991;SDS011;2010;48.194;16.394;2023-11-22T07:01:51;9.17;;;7.40;;
3991;SDS011;2010;48.194;16.394;2023-11-22T07:04:22;7.43;;;6.60;;
3991;SDS011;2010;48.194;16.394;2023-11-22T07:06:55;10.23;;;8.00;;
3991;SDS011;2010;48.194;16.394;2023-11-22T07:09:25;8.53;;;7.23;;
3991;SDS011;2010;48.194;16.394;2023-11-22T07:11:59;8.90;;;7.40;;
3991;SDS011;2010;48.194;16.394;2023-11-22T07:14:32;7.67;;;6.50;;
3991;SDS011;2010;48.194;16.394;2023-11-22T07:17:13;7.93;;;6.37;;
3991;SDS011;2010;48.194;16.394;2023-11-22T07:19:42;7.50;;;6.70;;
3991;SDS011;2010;48.194;16.394;2023-11-22T07:22:14;10.27;;;7.13;;
3991;SDS011;2010;48.194;16.394;2023-11-22T07:24:55;11.43;;;7.27;;
3991;SDS011;2010;48.194;16.394;2023-11-22T07:27:39;9.33;;;7.20;;
3991;SDS011;2010;48.194;16.394;2023-11-22T07:30:09;10.27;;;8.33;;
3991;SDS011;2010;48.194;16.394;2023-11-22T07:32:44;8.80;;;7.70;;
3991;SDS011;2010;48.194;16.394;2023-11-22T07:35:13;8.50;;;7.17;;
3991;SDS011;2010;48.194;16.394;2023-11-22T07:37:51;8.20;;;7.40;;
3991;SDS011;2010;48.194;16.394;2023-11-22T07:40:22;11.43;;;8.17;;
3991;SDS011;2010;48.194;16.394;2023-11-22T07:42:50;8.93;;;6.83;;
3991;SDS011;2010;48.194;16.394;2023-11-22T07:45:19;13.37;;;6.70;;
3991;SDS011;2010;48.194;16.394;2023-11-22T07:47:57;9.70;;;7.57;;
3991;SDS011;2010;48.194;16.394;2023-11-22T07:50:31;9.17;;;7.23;;
3991;SDS011;2010;48.194;16.394;2023-11-22T07:53:17;12.07;;;8.20;;
3991;SDS011;2010;48.194;16.394;2023-11-22T07:55:48;10.00;;;7.70;;
3991;SDS011;2010;48.194;16.394;2023-11-22T07:58:28;9.10;;;7.60;;
3991;SDS011;2010;48.194;16.394;2023-11-22T08:00:58;7.57;;;6.47;;
3991;SDS011;2010;48.194;16.394;2023-11-22T08:03:47;11.93;;;7.13;;
3991;SDS011;2010;48.194;16.394;2023-11-22T08:06:19;8.63;;;7.17;;
3991;SDS011;2010;48.194;16.394;2023-11-22T08:08:54;8.60;;;7.03;;
3991;SDS011;2010;48.194;16.394;2023-11-22T08:11:22;8.07;;;6.40;;
3991;SDS011;2010;48.194;16.394;2023-11-22T08:13:52;7.93;;;6.90;;
3991;SDS011;2010;48.194;16.394;2023-11-22T08:16:26;8.20;;;7.40;;
3991;SDS011;2010;48.194;16.394;2023-11-22T08:18:59;8.10;;;6.60;;
3991;SDS011;2010;48.194;16.394;2023-11-22T08:21:31;7.00;;;6.30;;
3991;SDS011;2010;48.194;16.394;2023-11-22T08:24:07;7.00;;;6.30;;
3991;SDS011;2010;48.194;16.394;2023-11-22T08:26:36;8.10;;;6.93;;
3991;SDS011;2010;48.194;16.394;2023-11-22T08:29:17;9.67;;;7.60;;
3991;SDS011;2010;48.194;16.394;2023-11-22T08:31:47;7.67;;;6.90;;
3991;SDS011;2010;48.194;16.394;2023-11-22T08:34:24;10.03;;;7.90;;
3991;SDS011;2010;48.194;16.394;2023-11-22T08:37:02;8.20;;;7.40;;
3991;SDS011;2010;48.194;16.394;2023-11-22T08:39:31;10.77;;;8.47;;
3991;SDS011;2010;48.194;16.394;2023-11-22T08:42:08;11.70;;;9.00;;
3991;SDS011;2010;48.194;16.394;2023-11-22T08:44:43;10.73;;;7.60;;
3991;SDS011;2010;48.194;16.394;2023-11-22T08:47:15;9.47;;;7.53;;
3991;SDS011;2010;48.194;16.394;2023-11-22T08:49:58;9.40;;;7.50;;
3991;SDS011;2010;48.194;16.394;2023-11-22T08:52:30;9.80;;;7.83;;
3991;SDS011;2010;48.194;16.394;2023-11-22T08:55:15;11.17;;;8.13;;
3991;SDS011;2010;48.194;16.394;2023-11-22T08:57:54;11.37;;;8.60;;
3991;SDS011;2010;48.194;16.394;2023-11-22T09:00:29;10.33;;;8.37;;
3991;SDS011;2010;48.194;16.394;2023-11-22T09:03:07;9.40;;;8.37;;
3991;SDS011;2010;48.194;16.394;2023-11-22T09:05:51;11.37;;;6.70;;
3991;SDS011;2010;48.194;16.394;2023-11-22T09:08:22;9.70;;;8.23;;
3991;SDS011;2010;48.194;16.394;2023-11-22T09:10:54;10.03;;;8.10;;
3991;SDS011;2010;48.194;16.394;2023-11-22T09:13:28;9.90;;;8.30;;
3991;SDS011;2010;48.194;16.394;2023-11-22T09:15:59;10.30;;;8.57;;
3991;SDS011;2010;48.194;16.394;2023-11-22T09:18:29;11.63;;;8.60;;
3991;SDS011;2010;48.194;16.394;2023-11-22T09:21:02;10.97;;;8.00;;
3991;SDS011;2010;48.194;16.394;2023-11-22T09:23:33;9.57;;;8.30;;
3991;SDS011;2010;48.194;16.394;2023-11-22T09:26:02;11.07;;;8.40;;
3991;SDS011;2010;48.194;16.394;2023-11-22T09:28:34;10.53;;;8.67;;
3991;SDS011;2010;48.194;16.394;2023-11-22T09:31:06;10.97;;;8.50;;
3991;SDS011;2010;48.194;16.394;2023-11-22T09:33:48;9.77;;;8.60;;
3991;SDS011;2010;48.194;16.394;2023-11-22T09:36:22;11.43;;;8.30;;
3991;SDS011;2010;48.194;16.394;2023-11-22T09:38:57;9.37;;;8.37;;
3991;SDS011;2010;48.194;16.394;2023-11-22T09:41:28;12.53;;;8.17;;
3991;SDS011;2010;48.194;16.394;2023-11-22T09:44:00;8.73;;;7.37;;
3991;SDS011;2010;48.194;16.394;2023-11-22T09:46:30;10.30;;;7.23;;
3991;SDS011;2010;48.194;16.394;2023-11-22T09:49:05;10.10;;;8.27;;
3991;SDS011;2010;48.194;16.394;2023-11-22T09:51:43;11.73;;;8.50;;
3991;SDS011;2010;48.194;16.394;2023-11-22T09:54:15;10.90;;;9.03;;
3991;SDS011;2010;48.194;16.394;2023-11-22T09:56:52;10.60;;;8.30;;
3991;SDS011;2010;48.194;16.394;2023-11-22T09:59:23;10.63;;;8.23;;
3991;SDS011;2010;48.194;16.394;2023-11-22T10:01:58;11.03;;;9.43;;
3991;SDS011;2010;48.194;16.394;2023-11-22T10:04:35;10.00;;;7.97;;
3991;SDS011;2010;48.194;16.394;2023-11-22T10:07:07;13.77;;;9.67;;
3991;SDS011;2010;48.194;16.394;2023-11-22T10:09:51;17.67;;;12.40;;
3991;SDS011;2010;48.194;16.394;2023-11-22T10:12:21;10.13;;;8.47;;
3991;SDS011;2010;48.194;16.394;2023-11-22T10:15:13;9.50;;;7.77;;
3991;SDS011;2010;48.194;16.394;2023-11-22T10:17:59;14.10;;;8.60;;
3991;SDS011;2010;48.194;16.394;2023-11-22T10:20:35;10.87;;;8.10;;
3991;SDS011;2010;48.194;16.394;2023-11-22T10:25:56;9.97;;;8.53;;
3991;SDS011;2010;48.194;16.394;2023-11-22T10:28:26;9.90;;;8.10;;
3991;SDS011;2010;48.194;16.394;2023-11-22T10:30:57;8.20;;;7.23;;
3991;SDS011;2010;48.194;16.394;2023-11-22T10:33:27;9.60;;;8.13;;
3991;SDS011;2010;48.194;16.394;2023-11-22T10:35:58;8.70;;;7.27;;
3991;SDS011;2010;48.194;16.394;2023-11-22T10:38:33;8.00;;;7.20;;
3991;SDS011;2010;48.194;16.394;2023-11-22T10:41:07;8.00;;;7.13;;
3991;SDS011;2010;48.194;16.394;2023-11-22T10:43:48;11.57;;;8.73;;
3991;SDS011;2010;48.194;16.394;2023-11-22T10:46:26;14.80;;;9.27;;
3991;SDS011;2010;48.194;16.394;2023-11-22T10:49:00;11.77;;;8.03;;
3991;SDS011;2010;48.194;16.394;2023-11-22T10:51:36;8.77;;;7.87;;
3991;SDS011;2010;48.194;16.394;2023-11-22T10:54:28;9.50;;;8.57;;
3991;SDS011;2010;48.194;16.394;2023-11-22T10:56:57;9.90;;;8.33;;
3991;SDS011;2010;48.194;16.394;2023-11-22T10:59:36;10.43;;;8.30;;
3991;SDS011;2010;48.194;16.394;2023-11-22T11:02:06;11.03;;;9.30;;
3991;SDS011;2010;48.194;16.394;2023-11-22T11:04:42;10.57;;;8.60;;
3991;SDS011;2010;48.194;16.394;2023-11-22T11:07:17;13.53;;;9.60;;
3991;SDS011;2010;48.194;16.394;2023-11-22T11:09:53;11.77;;;9.67;;
3991;SDS011;2010;48.194;16.394;2023-11-22T11:12:34;9.93;;;8.93;;
3991;SDS011;2010;48.194;16.394;2023-11-22T11:15:07;14.50;;;12.60;;
3991;SDS011;2010;48.194;16.394;2023-11-22T11:17:38;13.10;;;11.67;;
3991;SDS011;2010;48.194;16.394;2023-11-22T11:20:19;11.53;;;10.10;;
3991;SDS011;2010;48.194;16.394;2023-11-22T11:22:49;11.90;;;10.07;;
3991;SDS011;2010;48.194;16.394;2023-11-22T11:25:36;11.10;;;8.60;;
3991;SDS011;2010;48.194;16.394;2023-11-22T11:28:10;14.10;;;10.70;;
3991;SDS011;2010;48.194;16.394;2023-11-22T11:30:44;16.63;;;11.07;;
3991;SDS011;2010;48.194;16.394;2023-11-22T11:33:33;13.83;;;10.10;;
3991;SDS011;2010;48.194;16.394;2023-11-22T11:36:06;12.70;;;10.50;;
3991;SDS011;2010;48.194;16.394;2023-11-22T11:38:47;10.87;;;9.40;;
3991;SDS011;2010;48.194;16.394;2023-11-22T11:41:26;13.40;;;10.00;;
3991;SDS011;2010;48.194;16.394;2023-11-22T11:44:04;10.90;;;9.80;;
3991;SDS011;2010;48.194;16.394;2023-11-22T11:46:37;12.00;;;10.70;;
3991;SDS011;2010;48.194;16.394;2023-11-22T11:49:18;11.40;;;10.00;;
3991;SDS011;2010;48.194;16.394;2023-11-22T11:51:55;14.07;;;11.40;;
3991;SDS011;2010;48.194;16.394;2023-11-22T11:54:24;13.73;;;10.50;;
3991;SDS011;2010;48.194;16.394;2023-11-22T11:57:02;12.43;;;10.80;;
3991;SDS011;2010;48.194;16.394;2023-11-22T11:59:34;12.40;;;10.17;;
3991;SDS011;2010;48.194;16.394;2023-11-22T12:02:09;12.73;;;11.40;;
3991;SDS011;2010;48.194;16.394;2023-11-22T12:04:42;13.70;;;11.70;;
3991;SDS011;2010;48.194;16.394;2023-11-22T12:07:11;15.57;;;12.40;;
3991;SDS011;2010;48.194;16.394;2023-11-22T12:09:42;12.90;;;11.20;;
3991;SDS011;2010;48.194;16.394;2023-11-22T12:12:18;12.93;;;11.53;;
3991;SDS011;2010;48.194;16.394;2023-11-22T12:14:49;11.10;;;9.90;;
3991;SDS011;2010;48.194;16.394;2023-11-22T12:17:20;11.07;;;9.13;;
3991;SDS011;2010;48.194;16.394;2023-11-22T12:19:52;12.00;;;9.67;;
3991;SDS011;2010;48.194;16.394;2023-11-22T12:22:24;11.20;;;10.00;;
3991;SDS011;2010;48.194;16.394;2023-11-22T12:24:53;13.57;;;11.70;;
3991;SDS011;2010;48.194;16.394;2023-11-22T12:27:29;14.70;;;11.13;;
3991;SDS011;2010;48.194;16.394;2023-11-22T12:30:03;12.60;;;11.30;;
3991;SDS011;2010;48.194;16.394;2023-11-22T12:32:50;12.83;;;11.07;;
3991;SDS011;2010;48.194;16.394;2023-11-22T12:35:27;14.30;;;10.90;;
3991;SDS011;2010;48.194;16.394;2023-11-22T12:37:55;15.07;;;12.77;;
3991;SDS011;2010;48.194;16.394;2023-11-22T12:40:26;14.03;;;12.13;;
3991;SDS011;2010;48.194;16.394;2023-11-22T12:43:03;12.10;;;10.90;;
3991;SDS011;2010;48.194;16.394;2023-11-22T12:45:41;14.17;;;11.43;;
3991;SDS011;2010;48.194;16.394;2023-11-22T12:48:23;14.97;;;13.07;;
3991;SDS011;2010;48.194;16.394;2023-11-22T12:50:55;15.67;;;13.20;;
3991;SDS011;2010;48.194;16.394;2023-11-22T12:53:26;16.03;;;13.43;;
3991;SDS011;2010;48.194;16.394;2023-11-22T12:55:56;14.60;;;12.03;;
3991;SDS011;2010;48.194;16.394;2023-11-22T12:58:36;18.20;;;14.40;;
3991;SDS011;2010;48.194;16.394;2023-11-22T13:01:05;18.70;;;14.50;;
3991;SDS011;2010;48.194;16.394;2023-11-22T13:03:37;16.20;;;13.47;;
3991;SDS011;2010;48.194;16.394;2023-11-22T13:06:08;15.27;;;12.83;;
3991;SDS011;2010;48.194;16.394;2023-11-22T13:08:39;17.17;;;13.10;;
3991;SDS011;2010;48.194;16.394;2023-11-22T13:11:08;17.50;;;14.10;;
3991;SDS011;2010;48.194;16.394;2023-11-22T13:13:48;14.90;;;12.83;;
3991;SDS011;2010;48.194;16.394;2023-11-22T13:16:18;17.70;;;13.73;;
3991;SDS011;2010;48.194;16.394;2023-11-22T13:18:54;17.33;;;13.93;;
3991;SDS011;2010;48.194;16.394;2023-11-22T13:21:25;19.90;;;14.00;;
3991;SDS011;2010;48.194;16.394;2023-11-22T13:23:55;20.60;;;14.33;;
3991;SDS011;2010;48.194;16.394;2023-11-22T13:26:27;17.77;;;13.67;;
3991;SDS011;2010;48.194;16.394;2023-11-22T13:28:57;16.80;;;12.17;;
3991;SDS011;2010;48.194;16.394;2023-11-22T13:31:33;14.33;;;12.50;;
3991;SDS011;2010;48.194;16.394;2023-11-22T13:34:10;12.73;;;11.43;;
3991;SDS011;2010;48.194;16.394;2023-11-22T13:36:41;15.03;;;12.17;;
3991;SDS011;2010;48.194;16.394;2023-11-22T13:39:13;16.00;;;12.93;;
3991;SDS011;2010;48.194;16.394;2023-11-22T13:41:49;18.50;;;13.10;;
3991;SDS011;2010;48.194;16.394;2023-11-22T13:44:24;16.07;;;14.30;;
3991;SDS011;2010;48.194;16.394;2023-11-22T13:47:07;15.03;;;13.33;;
3991;SDS011;2010;48.194;16.394;2023-11-22T13:49:44;18.50;;;13.90;;
3991;SDS011;2010;48.194;16.394;2023-11-22T13:52:14;17.97;;;14.00;;
3991;SDS011;2010;48.194;16.394;2023-11-22T13:54:48;16.00;;;12.80;;
3991;SDS011;2010;48.194;16.394;2023-11-22T13:57:19;18.40;;;13.53;;
3991;SDS011;2010;48.194;16.394;2023-11-22T13:59:54;22.77;;;13.80;;
3991;SDS011;2010;48.194;16.394;2023-11-22T14:02:23;19.50;;;12.80;;
3991;SDS011;2010;48.194;16.394;2023-11-22T14:04:54;19.33;;;13.67;;
3991;SDS011;2010;48.194;16.394;2023-11-22T14:07:26;17.10;;;14.20;;
3991;SDS011;2010;48.194;16.394;2023-11-22T14:10:03;17.33;;;13.80;;
3991;SDS011;2010;48.194;16.394;2023-11-22T14:12:34;16.13;;;14.43;;
3991;SDS011;2010;48.194;16.394;2023-11-22T14:15:11;16.00;;;13.30;;
3991;SDS011;2010;48.194;16.394;2023-11-22T14:17:46;16.60;;;13.50;;
3991;SDS011;2010;48.194;16.394;2023-11-22T14:20:19;17.33;;;13.83;;
3991;SDS011;2010;48.194;16.394;2023-11-22T14:22:54;16.30;;;13.87;;
3991;SDS011;2010;48.194;16.394;2023-11-22T14:25:25;14.10;;;12.60;;
3991;SDS011;2010;48.194;16.394;2023-11-22T14:27:54;17.13;;;13.07;;
3991;SDS011;2010;48.194;16.394;2023-11-22T14:30:28;15.53;;;12.63;;
3991;SDS011;2010;48.194;16.394;2023-11-22T14:33:10;15.00;;;11.93;;
3991;SDS011;2010;48.194;16.394;2023-11-22T14:35:40;16.17;;;12.83;;
3991;SDS011;2010;48.194;16.394;2023-11-22T14:38:11;18.77;;;13.20;;
3991;SDS011;2010;48.194;16.394;2023-11-22T14:40:51;15.97;;;12.83;;
3991;SDS011;2010;48.194;16.394;2023-11-22T14:43:23;17.03;;;12.40;;
3991;SDS011;2010;48.194;16.394;2023-11-22T14:46:09;16.50;;;12.20;;
3991;SDS011;2010;48.194;16.394;2023-11-22T14:48:38;17.93;;;12.53;;
3991;SDS011;2010;48.194;16.394;2023-11-22T14:51:12;16.73;;;13.13;;
3991;SDS011;2010;48.194;16.394;2023-11-22T14:53:50;15.03;;;12.90;;
3991;SDS011;2010;48.194;16.394;2023-11-22T14:56:31;17.73;;;12.77;;
3991;SDS011;2010;48.194;16.394;2023-11-22T14:59:06;15.10;;;11.83;;
3991;SDS011;2010;48.194;16.394;2023-11-22T15:01:50;17.17;;;12.50;;
3991;SDS011;2010;48.194;16.394;2023-11-22T15:04:21;15.90;;;12.03;;
3991;SDS011;2010;48.194;16.394;2023-11-22T15:06:57;13.93;;;12.40;;
3991;SDS011;2010;48.194;16.394;2023-11-22T15:09:35;17.77;;;13.30;;
3991;SDS011;2010;48.194;16.394;2023-11-22T15:12:07;16.67;;;12.43;;
3991;SDS011;2010;48.194;16.394;2023-11-22T15:14:46;16.90;;;11.73;;
3991;SDS011;2010;48.194;16.394;2023-11-22T15:17:19;15.90;;;12.97;;
3991;SDS011;2010;48.194;16.394;2023-11-22T15:20:01;15.90;;;11.97;;
3991;SDS011;2010;48.194;16.394;2023-11-22T15:22:38;15.73;;;11.60;;
3991;SDS011;2010;48.194;16.394;2023-11-22T15:25:12;18.27;;;13.30;;
3991;SDS011;2010;48.194;16.394;2023-11-22T15:27:46;17.03;;;13.23;;
3991;SDS011;2010;48.194;16.394;2023-11-22T15:30:24;24.70;;;12.73;;
3991;SDS011;2010;48.194;16.394;2023-11-22T15:32:57;17.60;;;13.30;;
3991;SDS011;2010;48.194;16.394;2023-11-22T15:35:30;16.27;;;12.37;;